ENY5984 KCLT-KMCO
Flight info
| Callsign | ENY5984 |
|---|---|
| Flight time | 1h 14m |
| Altitude | 34000 |
| Route | ICONS5 NOOKS WURFL Q83 ROYCO Q85 LPERD SNFLD3 |
| Aircraft | E170/M-SDE3GILORVW/S |
Departure
| Time | 2026-05-08 03:21 |
|---|---|
| Airport | Charlotte Douglas International Airport (KCLT) |
Arrival
| Time | 2026-05-08 04:35 |
|---|---|
| Airport | Orlando International Airport (KMCO) |
| Time | Latitude | Longitude | Altitude | Speed | Heading |
|---|---|---|---|---|---|
| 2026-05-08 01:44 | 35.22038 | -80.93898 | 729 ft | 0 kts | 298° |
| 2026-05-08 03:10 | 35.22036 | -80.93893 | 730 ft | 2 kts | 298° |
| 2026-05-08 03:11 | 35.22028 | -80.93876 | 729 ft | 2 kts | 301° |
| 2026-05-08 03:11 | 35.22025 | -80.93856 | 728 ft | 2 kts | 256° |
| 2026-05-08 03:11 | 35.22034 | -80.93840 | 729 ft | 2 kts | 224° |
| 2026-05-08 03:11 | 35.22040 | -80.93834 | 729 ft | 2 kts | 214° |
| 2026-05-08 03:12 | 35.22045 | -80.93830 | 730 ft | 0 kts | 206° |
| 2026-05-08 03:16 | 35.22035 | -80.93834 | 730 ft | 4 kts | 193° |
| 2026-05-08 03:16 | 35.21995 | -80.93831 | 730 ft | 8 kts | 194° |
| 2026-05-08 03:17 | 35.21942 | -80.93885 | 729 ft | 12 kts | 228° |
| 2026-05-08 03:17 | 35.21870 | -80.93912 | 730 ft | 11 kts | 161° |
| 2026-05-08 03:17 | 35.21798 | -80.93943 | 730 ft | 13 kts | 195° |
| 2026-05-08 03:17 | 35.21718 | -80.93889 | 730 ft | 15 kts | 137° |
| 2026-05-08 03:18 | 35.21644 | -80.93791 | 730 ft | 17 kts | 130° |
| 2026-05-08 03:18 | 35.21569 | -80.93688 | 730 ft | 14 kts | 142° |
| 2026-05-08 03:18 | 35.21472 | -80.93667 | 731 ft | 16 kts | 176° |
| 2026-05-08 03:18 | 35.21355 | -80.93657 | 731 ft | 18 kts | 176° |
| 2026-05-08 03:19 | 35.21222 | -80.93645 | 730 ft | 20 kts | 176° |
| 2026-05-08 03:19 | 35.21072 | -80.93632 | 731 ft | 23 kts | 176° |
| 2026-05-08 03:19 | 35.20910 | -80.93618 | 731 ft | 25 kts | 175° |
| 2026-05-08 03:19 | 35.20732 | -80.93603 | 731 ft | 27 kts | 175° |
| 2026-05-08 03:20 | 35.20561 | -80.93588 | 731 ft | 24 kts | 175° |
| 2026-05-08 03:20 | 35.20387 | -80.93573 | 729 ft | 26 kts | 176° |
| 2026-05-08 03:20 | 35.20203 | -80.93557 | 730 ft | 24 kts | 176° |
| 2026-05-08 03:20 | 35.20105 | -80.93509 | 731 ft | 15 kts | 100° |
| 2026-05-08 03:21 | 35.20135 | -80.93418 | 732 ft | 8 kts | 348° |
| 2026-05-08 03:21 | 35.20354 | -80.93435 | 734 ft | 73 kts | 356° |
| 2026-05-08 03:21 | 35.21150 | -80.93506 | 759 ft | 150 kts | 356° |
| 2026-05-08 03:21 | 35.22226 | -80.93601 | 1618 ft | 160 kts | 356° |
| 2026-05-08 03:22 | 35.23259 | -80.94137 | 2840 ft | 163 kts | 321° |
| 2026-05-08 03:22 | 35.23962 | -80.95232 | 3984 ft | 173 kts | 310° |
| 2026-05-08 03:22 | 35.24753 | -80.96440 | 4926 ft | 192 kts | 309° |
| 2026-05-08 03:22 | 35.25647 | -80.97786 | 5624 ft | 214 kts | 309° |
| 2026-05-08 03:23 | 35.26490 | -80.99373 | 6108 ft | 233 kts | 287° |
| 2026-05-08 03:23 | 35.26505 | -81.01401 | 6642 ft | 251 kts | 254° |
| 2026-05-08 03:23 | 35.25527 | -81.03192 | 7434 ft | 261 kts | 223° |
| 2026-05-08 03:23 | 35.23847 | -81.04111 | 8263 ft | 275 kts | 194° |
| 2026-05-08 03:24 | 35.21909 | -81.03875 | 9074 ft | 291 kts | 168° |
| 2026-05-08 03:24 | 35.20012 | -81.02920 | 9847 ft | 298 kts | 162° |
| 2026-05-08 03:24 | 35.18106 | -81.01816 | 10352 ft | 310 kts | 161° |
| 2026-05-08 03:24 | 35.16117 | -81.00634 | 10744 ft | 325 kts | 160° |
| 2026-05-08 03:25 | 35.14052 | -80.99439 | 11294 ft | 329 kts | 167° |
| 2026-05-08 03:25 | 35.11830 | -80.99009 | 11971 ft | 321 kts | 185° |
| 2026-05-08 03:25 | 35.09594 | -80.98977 | 12686 ft | 324 kts | 188° |
| 2026-05-08 03:25 | 35.07316 | -80.99026 | 13436 ft | 329 kts | 188° |
| 2026-05-08 03:26 | 35.05015 | -80.99096 | 14169 ft | 334 kts | 189° |
| 2026-05-08 03:26 | 35.02668 | -80.99061 | 14907 ft | 341 kts | 185° |
| 2026-05-08 03:26 | 35.00281 | -80.98844 | 15618 ft | 347 kts | 185° |
| 2026-05-08 03:26 | 34.97850 | -80.98596 | 16330 ft | 352 kts | 185° |
| 2026-05-08 03:27 | 34.95400 | -80.98339 | 17034 ft | 356 kts | 185° |
| 2026-05-08 03:27 | 34.92950 | -80.98075 | 17678 ft | 360 kts | 185° |
| 2026-05-08 03:27 | 34.90441 | -80.97830 | 18379 ft | 364 kts | 186° |
| 2026-05-08 03:27 | 34.87909 | -80.97570 | 19056 ft | 366 kts | 186° |
| 2026-05-08 03:28 | 34.85362 | -80.97305 | 19732 ft | 368 kts | 187° |
| 2026-05-08 03:28 | 34.82803 | -80.97041 | 20382 ft | 370 kts | 187° |
| 2026-05-08 03:28 | 34.80241 | -80.96786 | 20778 ft | 359 kts | 189° |
| 2026-05-08 03:28 | 34.77852 | -80.96771 | 20762 ft | 334 kts | 194° |
| 2026-05-08 03:29 | 34.75515 | -80.96834 | 20784 ft | 342 kts | 195° |
| 2026-05-08 03:29 | 34.73073 | -80.96917 | 21085 ft | 358 kts | 194° |
| 2026-05-08 03:29 | 34.70544 | -80.96988 | 21643 ft | 365 kts | 194° |
| 2026-05-08 03:29 | 34.68003 | -80.97064 | 22316 ft | 367 kts | 195° |
| 2026-05-08 03:30 | 34.62883 | -80.97207 | 23612 ft | 369 kts | 198° |
| 2026-05-08 03:30 | 34.57732 | -80.97661 | 24588 ft | 374 kts | 199° |
| 2026-05-08 03:31 | 34.52501 | -80.98155 | 25562 ft | 380 kts | 199° |
| 2026-05-08 03:31 | 34.47183 | -80.98656 | 26510 ft | 386 kts | 199° |
| 2026-05-08 03:32 | 34.44501 | -80.98908 | 26969 ft | 389 kts | 199° |
| 2026-05-08 03:32 | 34.41792 | -80.99161 | 27411 ft | 392 kts | 199° |
| 2026-05-08 03:32 | 34.39063 | -80.99418 | 27847 ft | 395 kts | 199° |
| 2026-05-08 03:32 | 34.36307 | -80.99675 | 28277 ft | 398 kts | 199° |
| 2026-05-08 03:33 | 34.33800 | -80.99910 | 28655 ft | 400 kts | 199° |
| 2026-05-08 03:33 | 34.30973 | -81.00174 | 29055 ft | 403 kts | 199° |
| 2026-05-08 03:33 | 34.28173 | -81.00436 | 29449 ft | 406 kts | 199° |
| 2026-05-08 03:33 | 34.25343 | -81.00700 | 29822 ft | 409 kts | 198° |
| 2026-05-08 03:34 | 34.22471 | -81.00972 | 29910 ft | 419 kts | 198° |
| 2026-05-08 03:34 | 34.19556 | -81.01237 | 30288 ft | 419 kts | 198° |
| 2026-05-08 03:34 | 34.16646 | -81.01507 | 30718 ft | 417 kts | 198° |
| 2026-05-08 03:34 | 34.13763 | -81.01776 | 31136 ft | 415 kts | 198° |
| 2026-05-08 03:35 | 34.10874 | -81.02046 | 31562 ft | 414 kts | 198° |
| 2026-05-08 03:35 | 34.08006 | -81.02313 | 32010 ft | 412 kts | 198° |
| 2026-05-08 03:35 | 34.05201 | -81.02574 | 32441 ft | 410 kts | 198° |
| 2026-05-08 03:35 | 34.02353 | -81.02838 | 32872 ft | 409 kts | 198° |
| 2026-05-08 03:36 | 33.99522 | -81.03100 | 33289 ft | 408 kts | 198° |
| 2026-05-08 03:36 | 33.96660 | -81.03183 | 33700 ft | 413 kts | 194° |
| 2026-05-08 03:36 | 33.93818 | -81.03173 | 33856 ft | 401 kts | 194° |
| 2026-05-08 03:37 | 33.88167 | -81.03139 | 33955 ft | 414 kts | 194° |
| 2026-05-08 03:37 | 33.82350 | -81.03074 | 33952 ft | 417 kts | 194° |
| 2026-05-08 03:38 | 33.76541 | -81.03021 | 33942 ft | 416 kts | 194° |
| 2026-05-08 03:38 | 33.70734 | -81.02967 | 33940 ft | 417 kts | 194° |
| 2026-05-08 03:39 | 33.64965 | -81.02913 | 33943 ft | 416 kts | 194° |
| 2026-05-08 03:39 | 33.59167 | -81.02860 | 33943 ft | 416 kts | 194° |
| 2026-05-08 03:40 | 33.53376 | -81.02807 | 33944 ft | 416 kts | 194° |
| 2026-05-08 03:40 | 33.47577 | -81.02753 | 33943 ft | 415 kts | 194° |
| 2026-05-08 03:41 | 33.41790 | -81.02700 | 33956 ft | 415 kts | 194° |
| 2026-05-08 03:41 | 33.36013 | -81.02647 | 33955 ft | 414 kts | 194° |
| 2026-05-08 03:42 | 33.31204 | -81.02603 | 33954 ft | 414 kts | 194° |
| 2026-05-08 03:42 | 33.25466 | -81.02550 | 33948 ft | 415 kts | 194° |
| 2026-05-08 03:43 | 33.19487 | -81.02495 | 33952 ft | 415 kts | 194° |
| 2026-05-08 03:43 | 33.13733 | -81.02442 | 33955 ft | 415 kts | 194° |
| 2026-05-08 03:44 | 33.07953 | -81.02390 | 33964 ft | 415 kts | 194° |
| 2026-05-08 03:44 | 33.02163 | -81.02337 | 33962 ft | 416 kts | 194° |
| 2026-05-08 03:45 | 32.96380 | -81.02285 | 33969 ft | 416 kts | 194° |
| 2026-05-08 03:45 | 32.90581 | -81.02231 | 33958 ft | 416 kts | 194° |
| 2026-05-08 03:46 | 32.84784 | -81.02179 | 33958 ft | 417 kts | 194° |
| 2026-05-08 03:46 | 32.79016 | -81.02127 | 33950 ft | 417 kts | 193° |
| 2026-05-08 03:47 | 32.73215 | -81.02074 | 33949 ft | 417 kts | 193° |
| 2026-05-08 03:47 | 32.67399 | -81.02021 | 33943 ft | 418 kts | 193° |
| 2026-05-08 03:48 | 32.61571 | -81.01969 | 33952 ft | 418 kts | 193° |
| 2026-05-08 03:48 | 32.56031 | -81.01895 | 33948 ft | 421 kts | 192° |
| 2026-05-08 03:49 | 32.50288 | -81.01935 | 33954 ft | 417 kts | 194° |
| 2026-05-08 03:49 | 32.44483 | -81.02039 | 33954 ft | 417 kts | 194° |
| 2026-05-08 03:50 | 32.40254 | -81.02116 | 33949 ft | 418 kts | 194° |
| 2026-05-08 03:50 | 32.34443 | -81.02220 | 33955 ft | 417 kts | 194° |
| 2026-05-08 03:51 | 32.28627 | -81.02323 | 33952 ft | 418 kts | 194° |
| 2026-05-08 03:51 | 32.22800 | -81.02426 | 33961 ft | 418 kts | 194° |
| 2026-05-08 03:52 | 32.16971 | -81.02530 | 33956 ft | 418 kts | 194° |
| 2026-05-08 03:52 | 32.11135 | -81.02633 | 33938 ft | 419 kts | 193° |
| 2026-05-08 03:53 | 32.05336 | -81.02735 | 33936 ft | 420 kts | 193° |
| 2026-05-08 03:53 | 31.99487 | -81.02841 | 33932 ft | 419 kts | 194° |
| 2026-05-08 03:54 | 31.93652 | -81.03000 | 33933 ft | 419 kts | 193° |
| 2026-05-08 03:54 | 31.87806 | -81.03161 | 33934 ft | 420 kts | 193° |
| 2026-05-08 03:55 | 31.81976 | -81.03320 | 33940 ft | 420 kts | 193° |
| 2026-05-08 03:55 | 31.76127 | -81.03480 | 33941 ft | 420 kts | 193° |
| 2026-05-08 03:56 | 31.70265 | -81.03640 | 33949 ft | 420 kts | 193° |
| 2026-05-08 03:56 | 31.64413 | -81.03800 | 33948 ft | 420 kts | 193° |
| 2026-05-08 03:57 | 31.58743 | -81.04613 | 33964 ft | 398 kts | 207° |
| 2026-05-08 03:57 | 31.53710 | -81.07010 | 33954 ft | 386 kts | 217° |
| 2026-05-08 03:58 | 31.48945 | -81.09890 | 33963 ft | 385 kts | 217° |
| 2026-05-08 03:58 | 31.44198 | -81.12800 | 33966 ft | 385 kts | 217° |
| 2026-05-08 03:59 | 31.39490 | -81.15708 | 33977 ft | 386 kts | 217° |
| 2026-05-08 03:59 | 31.34695 | -81.18559 | 33977 ft | 387 kts | 217° |
| 2026-05-08 04:00 | 31.29891 | -81.21411 | 33974 ft | 387 kts | 216° |
| 2026-05-08 04:00 | 31.25081 | -81.24266 | 33968 ft | 387 kts | 216° |
| 2026-05-08 04:01 | 31.20159 | -81.26945 | 33971 ft | 399 kts | 207° |
| 2026-05-08 04:01 | 31.17404 | -81.27669 | 33977 ft | 411 kts | 199° |
| 2026-05-08 04:01 | 31.14581 | -81.28099 | 33973 ft | 416 kts | 195° |
| 2026-05-08 04:02 | 31.08707 | -81.28239 | 33975 ft | 424 kts | 191° |
| 2026-05-08 04:02 | 31.02794 | -81.28227 | 33968 ft | 425 kts | 190° |
| 2026-05-08 04:03 | 30.97249 | -81.28211 | 33978 ft | 425 kts | 190° |
| 2026-05-08 04:03 | 30.88397 | -81.28187 | 33976 ft | 425 kts | 190° |
| 2026-05-08 04:04 | 30.85434 | -81.28181 | 33780 ft | 426 kts | 190° |
| 2026-05-08 04:04 | 30.82455 | -81.28174 | 33499 ft | 432 kts | 190° |
| 2026-05-08 04:04 | 30.79424 | -81.28168 | 33287 ft | 438 kts | 190° |
| 2026-05-08 04:04 | 30.76367 | -81.28158 | 33145 ft | 440 kts | 190° |
| 2026-05-08 04:05 | 30.73301 | -81.28149 | 33000 ft | 440 kts | 190° |
| 2026-05-08 04:05 | 30.70242 | -81.28142 | 32851 ft | 441 kts | 190° |
| 2026-05-08 04:05 | 30.67167 | -81.28134 | 32707 ft | 441 kts | 189° |
| 2026-05-08 04:05 | 30.64288 | -81.28127 | 32566 ft | 441 kts | 190° |
| 2026-05-08 04:06 | 30.61208 | -81.28135 | 32416 ft | 445 kts | 188° |
| 2026-05-08 04:06 | 30.58097 | -81.27942 | 32264 ft | 447 kts | 186° |
| 2026-05-08 04:06 | 30.54976 | -81.27724 | 32114 ft | 449 kts | 186° |
| 2026-05-08 04:06 | 30.51865 | -81.27490 | 31959 ft | 449 kts | 186° |
| 2026-05-08 04:07 | 30.48742 | -81.27253 | 31804 ft | 450 kts | 186° |
| 2026-05-08 04:07 | 30.45658 | -81.27019 | 31658 ft | 450 kts | 186° |
| 2026-05-08 04:07 | 30.42489 | -81.26779 | 31513 ft | 451 kts | 185° |
| 2026-05-08 04:07 | 30.39392 | -81.26546 | 31371 ft | 452 kts | 185° |
| 2026-05-08 04:08 | 30.36249 | -81.26309 | 31146 ft | 452 kts | 185° |
| 2026-05-08 04:08 | 30.33112 | -81.26073 | 30886 ft | 453 kts | 185° |
| 2026-05-08 04:08 | 30.29966 | -81.25837 | 30623 ft | 454 kts | 185° |
| 2026-05-08 04:08 | 30.26805 | -81.25600 | 30371 ft | 455 kts | 185° |
| 2026-05-08 04:09 | 30.23649 | -81.25364 | 30124 ft | 456 kts | 185° |
| 2026-05-08 04:09 | 30.20467 | -81.25125 | 29838 ft | 456 kts | 185° |
| 2026-05-08 04:09 | 30.17292 | -81.24888 | 29551 ft | 457 kts | 185° |
| 2026-05-08 04:09 | 30.14146 | -81.24652 | 29263 ft | 458 kts | 185° |
| 2026-05-08 04:10 | 30.10962 | -81.24414 | 28981 ft | 459 kts | 184° |
| 2026-05-08 04:10 | 30.07739 | -81.24174 | 28688 ft | 459 kts | 184° |
| 2026-05-08 04:10 | 30.04563 | -81.23936 | 28415 ft | 457 kts | 184° |
| 2026-05-08 04:10 | 30.01425 | -81.23702 | 28162 ft | 456 kts | 184° |
| 2026-05-08 04:11 | 29.98263 | -81.23467 | 27911 ft | 454 kts | 184° |
| 2026-05-08 04:11 | 29.95104 | -81.23231 | 27658 ft | 453 kts | 184° |
| 2026-05-08 04:11 | 29.91968 | -81.22996 | 27399 ft | 451 kts | 184° |
| 2026-05-08 04:11 | 29.88838 | -81.22764 | 27154 ft | 450 kts | 184° |
| 2026-05-08 04:12 | 29.85722 | -81.22535 | 26901 ft | 448 kts | 184° |
| 2026-05-08 04:12 | 29.82610 | -81.22303 | 26653 ft | 447 kts | 184° |
| 2026-05-08 04:12 | 29.79515 | -81.22073 | 26396 ft | 446 kts | 184° |
| 2026-05-08 04:12 | 29.76425 | -81.21844 | 26160 ft | 444 kts | 184° |
| 2026-05-08 04:13 | 29.73357 | -81.21642 | 25925 ft | 442 kts | 184° |
| 2026-05-08 04:13 | 29.70281 | -81.21380 | 25674 ft | 442 kts | 183° |
| 2026-05-08 04:13 | 29.67239 | -81.21120 | 25326 ft | 431 kts | 184° |
| 2026-05-08 04:13 | 29.64296 | -81.20866 | 24965 ft | 416 kts | 184° |
| 2026-05-08 04:14 | 29.61435 | -81.20624 | 24614 ft | 410 kts | 184° |
| 2026-05-08 04:14 | 29.58675 | -81.20391 | 24290 ft | 412 kts | 184° |
| 2026-05-08 04:14 | 29.55807 | -81.20143 | 23959 ft | 411 kts | 184° |
| 2026-05-08 04:14 | 29.52961 | -81.19898 | 23633 ft | 409 kts | 184° |
| 2026-05-08 04:15 | 29.50165 | -81.19658 | 23213 ft | 407 kts | 184° |
| 2026-05-08 04:15 | 29.47351 | -81.19417 | 22740 ft | 404 kts | 183° |
| 2026-05-08 04:15 | 29.44559 | -81.19178 | 22247 ft | 401 kts | 183° |
| 2026-05-08 04:15 | 29.41821 | -81.18944 | 21749 ft | 398 kts | 183° |
| 2026-05-08 04:16 | 29.39070 | -81.18709 | 21255 ft | 395 kts | 183° |
| 2026-05-08 04:16 | 29.36335 | -81.18476 | 20766 ft | 392 kts | 183° |
| 2026-05-08 04:16 | 29.33617 | -81.18248 | 20283 ft | 389 kts | 183° |
| 2026-05-08 04:16 | 29.30919 | -81.18022 | 19807 ft | 388 kts | 182° |
| 2026-05-08 04:17 | 29.28233 | -81.17781 | 19343 ft | 385 kts | 182° |
| 2026-05-08 04:17 | 29.25587 | -81.17548 | 18888 ft | 382 kts | 182° |
| 2026-05-08 04:17 | 29.22928 | -81.17311 | 18469 ft | 381 kts | 181° |
| 2026-05-08 04:17 | 29.20297 | -81.16889 | 18119 ft | 382 kts | 175° |
| 2026-05-08 04:18 | 29.18570 | -81.16501 | 17880 ft | 382 kts | 174° |
| 2026-05-08 04:18 | 29.16127 | -81.15728 | 17549 ft | 385 kts | 166° |
| 2026-05-08 04:18 | 29.12788 | -81.14337 | 17076 ft | 382 kts | 165° |
| 2026-05-08 04:18 | 29.11106 | -81.13609 | 16840 ft | 381 kts | 164° |
| 2026-05-08 04:19 | 29.08221 | -81.12303 | 16431 ft | 378 kts | 165° |
| 2026-05-08 04:19 | 29.06568 | -81.11650 | 16195 ft | 375 kts | 166° |
| 2026-05-08 04:19 | 29.04106 | -81.10702 | 15949 ft | 372 kts | 166° |
| 2026-05-08 04:19 | 29.01621 | -81.09759 | 15713 ft | 371 kts | 166° |
| 2026-05-08 04:20 | 28.99188 | -81.08919 | 15488 ft | 368 kts | 169° |
| 2026-05-08 04:20 | 28.96713 | -81.08197 | 15247 ft | 364 kts | 173° |
| 2026-05-08 04:20 | 28.94219 | -81.07808 | 14979 ft | 360 kts | 178° |
| 2026-05-08 04:20 | 28.91759 | -81.07522 | 14681 ft | 347 kts | 182° |
| 2026-05-08 04:21 | 28.89418 | -81.07664 | 14182 ft | 326 kts | 192° |
| 2026-05-08 04:21 | 28.87235 | -81.08071 | 13671 ft | 311 kts | 195° |
| 2026-05-08 04:21 | 28.85146 | -81.08582 | 13122 ft | 304 kts | 197° |
| 2026-05-08 04:21 | 28.83121 | -81.09218 | 12587 ft | 299 kts | 202° |
| 2026-05-08 04:22 | 28.81161 | -81.10001 | 12072 ft | 297 kts | 203° |
| 2026-05-08 04:22 | 28.79302 | -81.10769 | 11566 ft | 296 kts | 203° |
| 2026-05-08 04:22 | 28.77387 | -81.11566 | 11054 ft | 295 kts | 203° |
| 2026-05-08 04:22 | 28.75464 | -81.12367 | 10541 ft | 293 kts | 202° |
| 2026-05-08 04:23 | 28.73552 | -81.13161 | 10040 ft | 292 kts | 202° |
| 2026-05-08 04:23 | 28.71652 | -81.13937 | 9558 ft | 289 kts | 202° |
| 2026-05-08 04:23 | 28.69731 | -81.14608 | 9205 ft | 289 kts | 196° |
| 2026-05-08 04:23 | 28.67796 | -81.15142 | 8864 ft | 289 kts | 195° |
| 2026-05-08 04:24 | 28.65820 | -81.15658 | 8521 ft | 287 kts | 194° |
| 2026-05-08 04:24 | 28.63876 | -81.16161 | 8180 ft | 285 kts | 194° |
| 2026-05-08 04:24 | 28.61944 | -81.16661 | 7850 ft | 284 kts | 194° |
| 2026-05-08 04:24 | 28.60031 | -81.17158 | 7594 ft | 281 kts | 194° |
| 2026-05-08 04:25 | 28.58121 | -81.17655 | 7375 ft | 281 kts | 194° |
| 2026-05-08 04:25 | 28.56234 | -81.18088 | 7154 ft | 274 kts | 191° |
| 2026-05-08 04:25 | 28.54371 | -81.18421 | 6955 ft | 268 kts | 189° |
| 2026-05-08 04:25 | 28.52557 | -81.18612 | 6759 ft | 263 kts | 183° |
| 2026-05-08 04:26 | 28.50732 | -81.18660 | 6561 ft | 257 kts | 182° |
| 2026-05-08 04:26 | 28.48977 | -81.18678 | 6367 ft | 255 kts | 181° |
| 2026-05-08 04:26 | 28.47204 | -81.18684 | 6171 ft | 255 kts | 182° |
| 2026-05-08 04:26 | 28.45432 | -81.18707 | 5983 ft | 254 kts | 182° |
| 2026-05-08 04:27 | 28.43663 | -81.18725 | 5788 ft | 252 kts | 181° |
| 2026-05-08 04:27 | 28.41935 | -81.18740 | 5584 ft | 245 kts | 181° |
| 2026-05-08 04:27 | 28.40244 | -81.18752 | 5376 ft | 240 kts | 181° |
| 2026-05-08 04:27 | 28.38588 | -81.18759 | 5185 ft | 237 kts | 181° |
| 2026-05-08 04:28 | 28.36954 | -81.18777 | 5074 ft | 232 kts | 181° |
| 2026-05-08 04:28 | 28.35373 | -81.18787 | 5032 ft | 223 kts | 181° |
| 2026-05-08 04:28 | 28.33819 | -81.18790 | 5017 ft | 224 kts | 181° |
| 2026-05-08 04:28 | 28.32247 | -81.18794 | 4983 ft | 228 kts | 181° |
| 2026-05-08 04:29 | 28.30661 | -81.18792 | 4734 ft | 224 kts | 181° |
| 2026-05-08 04:29 | 28.29143 | -81.18795 | 4468 ft | 213 kts | 181° |
| 2026-05-08 04:29 | 28.27685 | -81.18797 | 4198 ft | 205 kts | 182° |
| 2026-05-08 04:29 | 28.26286 | -81.18799 | 3958 ft | 197 kts | 181° |
| 2026-05-08 04:30 | 28.24935 | -81.18811 | 3707 ft | 193 kts | 187° |
| 2026-05-08 04:30 | 28.23786 | -81.19452 | 3453 ft | 185 kts | 230° |
| 2026-05-08 04:30 | 28.23331 | -81.20786 | 3218 ft | 184 kts | 265° |
| 2026-05-08 04:30 | 28.23581 | -81.22202 | 3119 ft | 185 kts | 285° |
| 2026-05-08 04:31 | 28.23990 | -81.23572 | 3060 ft | 186 kts | 288° |
| 2026-05-08 04:31 | 28.24438 | -81.24948 | 3022 ft | 186 kts | 289° |
| 2026-05-08 04:31 | 28.24987 | -81.26276 | 3152 ft | 186 kts | 302° |
| 2026-05-08 04:31 | 28.25865 | -81.27387 | 3344 ft | 193 kts | 319° |
| 2026-05-08 04:32 | 28.27020 | -81.28136 | 3430 ft | 193 kts | 343° |
| 2026-05-08 04:32 | 28.28376 | -81.28253 | 3423 ft | 195 kts | 5° |
| 2026-05-08 04:32 | 28.29728 | -81.28098 | 3460 ft | 197 kts | 4° |
| 2026-05-08 04:32 | 28.31060 | -81.28020 | 3090 ft | 186 kts | 357° |
| 2026-05-08 04:33 | 28.32301 | -81.28061 | 2740 ft | 173 kts | 356° |
| 2026-05-08 04:33 | 28.33495 | -81.28105 | 2222 ft | 171 kts | 355° |
| 2026-05-08 04:33 | 28.34641 | -81.28168 | 1935 ft | 157 kts | 355° |
| 2026-05-08 04:33 | 28.35668 | -81.28175 | 1753 ft | 141 kts | 358° |
| 2026-05-08 04:34 | 28.36647 | -81.28169 | 1453 ft | 140 kts | 356° |
| 2026-05-08 04:34 | 28.37564 | -81.28178 | 1239 ft | 136 kts | 356° |
| 2026-05-08 04:34 | 28.38515 | -81.28202 | 982 ft | 139 kts | 357° |
| 2026-05-08 04:34 | 28.39481 | -81.28202 | 821 ft | 140 kts | 356° |
| 2026-05-08 04:35 | 28.40453 | -81.28216 | 583 ft | 139 kts | 355° |
| 2026-05-08 04:35 | 28.41416 | -81.28228 | 287 ft | 138 kts | 357° |
| 2026-05-08 04:35 | 28.42332 | -81.28240 | 96 ft | 118 kts | 360° |
| 2026-05-08 04:35 | 28.42950 | -81.28238 | 101 ft | 42 kts | 359° |
| 2026-05-08 04:36 | 28.43117 | -81.28237 | 102 ft | 18 kts | 4° |